createdAt,value
2022-11-27T00:02:18.640Z,13.80
2022-11-27T00:04:50.404Z,13.70
2022-11-27T00:07:21.923Z,14.90
2022-11-27T00:09:53.628Z,13.10
2022-11-27T00:14:55.800Z,13.90
2022-11-27T00:17:27.433Z,13.90
2022-11-27T00:19:59.028Z,14.10
2022-11-27T00:22:30.597Z,15.10
2022-11-27T00:25:01.921Z,14.20
2022-11-27T00:27:33.595Z,15.80
2022-11-27T00:30:05.649Z,14.50
2022-11-27T00:32:37.458Z,15.20
2022-11-27T00:35:10.615Z,14.50
2022-11-27T00:37:42.203Z,14.60
2022-11-27T00:40:15.756Z,14.30
2022-11-27T00:42:47.298Z,15.30
2022-11-27T00:45:19.130Z,14.60
2022-11-27T00:47:50.846Z,13.50
2022-11-27T00:50:22.645Z,12.50
2022-11-27T00:52:54.214Z,11.90
2022-11-27T00:55:25.913Z,13.00
2022-11-27T01:00:27.902Z,13.90
2022-11-27T01:02:59.612Z,14.50
2022-11-27T01:05:31.239Z,13.90
2022-11-27T01:10:32.799Z,12.60
2022-11-27T01:15:34.540Z,14.50
2022-11-27T01:18:06.446Z,13.10
2022-11-27T01:20:40.794Z,12.50
2022-11-27T01:23:12.461Z,12.50
2022-11-27T01:28:14.196Z,11.80
2022-11-27T01:33:15.962Z,11.90
2022-11-27T01:38:17.460Z,10.30
2022-11-27T01:40:49.205Z,11.00
2022-11-27T01:43:34.361Z,11.90
2022-11-27T01:46:06.273Z,14.30
2022-11-27T01:48:37.875Z,12.60
2022-11-27T01:51:09.542Z,13.90
2022-11-27T01:56:11.496Z,14.00
2022-11-27T01:58:43.404Z,14.90
2022-11-27T02:03:45.020Z,14.30
2022-11-27T02:08:46.789Z,14.90
2022-11-27T02:13:50.182Z,14.40
2022-11-27T02:16:26.266Z,15.50
2022-11-27T02:19:00.847Z,14.10
2022-11-27T02:21:37.745Z,16.20
2022-11-27T02:24:38.974Z,16.30
2022-11-27T02:27:28.122Z,16.40
2022-11-27T02:30:00.473Z,16.10
2022-11-27T02:32:33.687Z,16.00
2022-11-27T02:35:08.060Z,15.90
2022-11-27T02:37:41.159Z,15.10
2022-11-27T02:40:15.181Z,14.70
2022-11-27T02:42:48.030Z,14.80
2022-11-27T02:45:21.486Z,15.00
2022-11-27T02:47:53.086Z,15.40
2022-11-27T02:52:56.707Z,14.60
2022-11-27T02:55:29.105Z,15.50
2022-11-27T02:58:00.901Z,17.10
2022-11-27T03:00:33.238Z,16.50
2022-11-27T03:03:06.954Z,15.20
2022-11-27T03:05:39.825Z,15.60
2022-11-27T03:08:13.479Z,16.50
2022-11-27T03:10:47.848Z,15.00
2022-11-27T03:13:19.399Z,16.40
2022-11-27T03:15:54.573Z,17.70
2022-11-27T03:18:29.661Z,17.50
2022-11-27T03:21:04.040Z,15.30
2022-11-27T03:23:35.603Z,17.20
2022-11-27T03:26:07.237Z,16.00
2022-11-27T03:28:38.955Z,16.80
2022-11-27T03:33:40.436Z,16.40
2022-11-27T03:38:46.521Z,15.50
2022-11-27T03:41:20.480Z,18.00
2022-11-27T03:43:55.203Z,17.20
2022-11-27T03:46:29.369Z,19.20
2022-11-27T03:49:03.828Z,17.60
2022-11-27T03:51:38.988Z,18.00
2022-11-27T03:54:13.889Z,18.60
2022-11-27T03:56:47.561Z,17.50
2022-11-27T03:59:21.587Z,17.30
2022-11-27T04:01:53.534Z,16.60
2022-11-27T04:04:25.515Z,18.80
2022-11-27T04:06:57.887Z,18.20
2022-11-27T04:09:29.801Z,18.40
2022-11-27T04:12:01.660Z,17.40
2022-11-27T04:14:33.529Z,18.10
2022-11-27T04:17:05.518Z,17.60
2022-11-27T04:19:37.339Z,17.70
2022-11-27T04:22:08.966Z,17.70
2022-11-27T04:24:40.848Z,18.30
2022-11-27T04:27:12.624Z,18.50
2022-11-27T04:32:14.405Z,21.10
2022-11-27T04:34:46.114Z,19.10
2022-11-27T04:39:47.650Z,19.40
2022-11-27T04:44:49.549Z,23.00
2022-11-27T04:47:21.191Z,21.20
2022-11-27T04:52:22.939Z,21.30
2022-11-27T04:57:31.619Z,21.30
2022-11-27T05:00:04.776Z,20.70
2022-11-27T05:02:36.804Z,21.40
2022-11-27T05:07:39.182Z,22.50
2022-11-27T05:10:12.285Z,20.00
2022-11-27T05:12:44.267Z,19.10
2022-11-27T05:15:16.151Z,21.20
2022-11-27T05:17:47.883Z,20.10
2022-11-27T05:20:19.850Z,20.40
2022-11-27T05:22:51.351Z,21.10
2022-11-27T05:25:22.973Z,23.10
2022-11-27T05:27:54.861Z,22.50
2022-11-27T05:30:26.379Z,18.60
2022-11-27T05:32:58.051Z,21.40
2022-11-27T05:35:29.555Z,21.30
2022-11-27T05:38:01.357Z,22.90
2022-11-27T05:40:33.048Z,20.40
2022-11-27T05:45:34.763Z,20.30
2022-11-27T05:50:36.408Z,20.20
2022-11-27T05:53:08.222Z,21.10
2022-11-27T05:58:09.996Z,19.20
2022-11-27T06:03:11.864Z,20.00
2022-11-27T06:05:43.786Z,22.20
2022-11-27T06:08:15.505Z,23.80
2022-11-27T06:13:17.200Z,22.00
2022-11-27T06:18:19.029Z,23.80
2022-11-27T06:20:53.136Z,24.10
2022-11-27T06:23:25.094Z,25.70
2022-11-27T06:25:56.743Z,24.40
2022-11-27T06:30:58.120Z,25.30
2022-11-27T06:33:29.854Z,26.50
2022-11-27T06:38:32.711Z,24.80
2022-11-27T06:41:07.409Z,26.00
2022-11-27T06:43:38.812Z,24.10
2022-11-27T06:46:11.199Z,25.30
2022-11-27T06:48:42.935Z,24.40
2022-11-27T06:53:44.617Z,22.40
2022-11-27T06:56:17.798Z,23.30
2022-11-27T06:58:51.641Z,23.10
2022-11-27T07:01:23.322Z,21.60
2022-11-27T07:06:25.648Z,24.00
2022-11-27T07:08:57.541Z,22.10
2022-11-27T07:11:29.939Z,22.40
2022-11-27T07:14:02.073Z,21.80
2022-11-27T07:16:34.356Z,25.40
2022-11-27T07:19:06.981Z,22.30
2022-11-27T07:21:39.327Z,20.10
2022-11-27T07:24:11.432Z,19.60
2022-11-27T07:26:42.987Z,20.80
2022-11-27T07:31:44.793Z,20.10
2022-11-27T07:34:21.465Z,19.00
2022-11-27T07:36:53.915Z,21.00
2022-11-27T07:39:46.233Z,19.60
2022-11-27T07:42:46.750Z,19.00
2022-11-27T07:45:10.622Z,19.40
2022-11-27T07:47:42.265Z,19.80
2022-11-27T07:52:44.869Z,19.70
2022-11-27T07:55:16.554Z,22.50
2022-11-27T07:57:47.900Z,21.40
2022-11-27T08:00:21.019Z,24.50
2022-11-27T08:02:52.979Z,22.90
2022-11-27T08:05:24.741Z,24.40
2022-11-27T08:07:56.712Z,24.80
2022-11-27T08:12:58.608Z,22.40
2022-11-27T08:15:30.388Z,23.40
2022-11-27T08:20:31.895Z,22.80
2022-11-27T08:25:35.384Z,22.90
2022-11-27T08:28:07.877Z,23.20
2022-11-27T08:30:39.629Z,21.90
2022-11-27T08:33:13.835Z,21.30
2022-11-27T08:35:50.974Z,21.20
2022-11-27T08:38:22.930Z,19.60
2022-11-27T08:40:59.737Z,20.00
2022-11-27T08:43:31.914Z,22.60
2022-11-27T08:46:06.353Z,24.70
2022-11-27T08:48:38.216Z,22.70
2022-11-27T08:51:11.242Z,22.00
2022-11-27T08:53:44.752Z,20.60
2022-11-27T08:56:18.212Z,20.10
2022-11-27T08:58:50.043Z,20.00
2022-11-27T09:01:22.776Z,20.10
2022-11-27T09:03:54.635Z,19.10
2022-11-27T09:06:28.448Z,16.30
2022-11-27T09:09:00.469Z,18.10
2022-11-27T09:11:33.063Z,18.40
2022-11-27T09:14:06.083Z,18.30
2022-11-27T09:16:38.202Z,21.20
2022-11-27T09:19:10.177Z,19.30
2022-11-27T09:21:42.037Z,18.40
2022-11-27T09:24:13.953Z,17.90
2022-11-27T09:26:46.547Z,18.20
2022-11-27T09:29:18.517Z,18.20
2022-11-27T09:31:51.666Z,19.70
2022-11-27T09:34:24.248Z,19.60
2022-11-27T09:36:56.767Z,16.80
2022-11-27T09:39:33.206Z,18.20
2022-11-27T09:42:06.400Z,17.90
2022-11-27T09:44:40.890Z,17.80
2022-11-27T09:47:18.248Z,18.10
2022-11-27T09:49:51.540Z,18.40
2022-11-27T09:52:26.079Z,17.60
2022-11-27T09:54:59.221Z,15.60
2022-11-27T09:57:32.735Z,16.80
2022-11-27T10:00:06.211Z,17.30
2022-11-27T10:02:37.910Z,18.40
2022-11-27T10:07:52.639Z,16.50
2022-11-27T10:10:34.606Z,16.60
2022-11-27T10:15:42.493Z,18.90
2022-11-27T10:18:16.346Z,17.50
2022-11-27T10:20:49.443Z,17.40
2022-11-27T10:23:25.985Z,16.40
2022-11-27T10:25:58.115Z,15.10
2022-11-27T10:28:33.046Z,16.00
2022-11-27T10:31:06.368Z,14.80
2022-11-27T10:33:41.468Z,14.90
2022-11-27T10:36:17.124Z,19.20
2022-11-27T10:38:48.683Z,17.60
2022-11-27T10:44:28.996Z,22.00
2022-11-27T10:47:02.934Z,23.80
2022-11-27T10:49:34.428Z,27.40
2022-11-27T10:52:06.305Z,22.10
2022-11-27T10:54:39.809Z,21.20
2022-11-27T10:57:39.926Z,20.00
2022-11-27T11:00:17.239Z,16.50
2022-11-27T11:02:49.334Z,14.80
2022-11-27T11:08:21.134Z,15.30
2022-11-27T11:10:55.973Z,13.40
2022-11-27T11:13:28.083Z,14.50
2022-11-27T11:16:05.252Z,13.70
2022-11-27T11:18:44.634Z,14.30
2022-11-27T11:21:18.985Z,15.00
2022-11-27T11:23:55.014Z,15.60
2022-11-27T11:26:29.821Z,15.40
2022-11-27T11:29:02.657Z,15.40
2022-11-27T11:31:35.631Z,13.20
2022-11-27T11:34:21.321Z,15.30
2022-11-27T11:37:00.629Z,14.30
2022-11-27T11:39:34.807Z,15.60
2022-11-27T11:42:12.025Z,16.20
2022-11-27T11:44:43.651Z,24.40
2022-11-27T11:47:19.751Z,20.50
2022-11-27T11:49:52.294Z,17.10
2022-11-27T11:52:31.992Z,17.00
2022-11-27T11:55:07.557Z,14.50
2022-11-27T11:58:10.680Z,14.30
2022-11-27T12:01:04.685Z,13.00
2022-11-27T12:03:40.012Z,11.70
2022-11-27T12:06:20.725Z,12.00
2022-11-27T12:09:00.726Z,11.80
2022-11-27T12:11:37.851Z,12.20
2022-11-27T12:14:17.607Z,11.50
2022-11-27T12:16:57.960Z,11.40
2022-11-27T12:19:49.396Z,10.90
2022-11-27T12:22:28.030Z,12.80
2022-11-27T12:25:04.092Z,14.10
2022-11-27T12:27:44.486Z,15.80
2022-11-27T12:30:19.397Z,17.80
2022-11-27T12:33:22.427Z,16.60
2022-11-27T12:35:58.346Z,16.50
2022-11-27T12:38:42.096Z,17.10
2022-11-27T12:41:33.936Z,17.20
2022-11-27T12:44:05.374Z,13.80
2022-11-27T12:46:41.019Z,11.40
2022-11-27T12:49:16.249Z,10.40
2022-11-27T12:51:49.813Z,11.50
2022-11-27T12:54:22.453Z,13.80
2022-11-27T12:56:55.358Z,11.10
2022-11-27T12:59:30.067Z,12.20
2022-11-27T13:02:05.948Z,11.90
2022-11-27T13:04:41.376Z,12.10
2022-11-27T13:07:13.940Z,10.40
2022-11-27T13:09:49.933Z,11.90
2022-11-27T13:12:27.835Z,11.20
2022-11-27T13:15:01.993Z,10.20
2022-11-27T13:17:39.291Z,8.80
2022-11-27T13:20:15.485Z,11.10
2022-11-27T13:22:47.279Z,9.80
2022-11-27T13:25:18.892Z,10.40
2022-11-27T13:27:51.966Z,10.00
2022-11-27T13:30:25.055Z,13.60
2022-11-27T13:32:58.654Z,12.50
2022-11-27T13:35:31.931Z,11.50
2022-11-27T13:38:09.502Z,11.40
2022-11-27T13:40:42.874Z,11.60
2022-11-27T13:43:23.994Z,9.90
2022-11-27T13:45:55.344Z,9.40
2022-11-27T13:48:33.884Z,11.20
2022-11-27T13:51:05.437Z,11.10
2022-11-27T13:53:38.728Z,10.60
2022-11-27T13:56:10.802Z,10.70
2022-11-27T13:58:43.191Z,10.00
2022-11-27T14:01:19.611Z,9.20
2022-11-27T14:03:53.345Z,9.50
2022-11-27T14:06:27.969Z,9.70
2022-11-27T14:09:01.199Z,10.60
2022-11-27T14:11:40.274Z,10.60
2022-11-27T14:14:21.056Z,10.40
2022-11-27T14:16:59.039Z,9.50
2022-11-27T14:19:35.214Z,9.60
2022-11-27T14:22:16.459Z,10.80
2022-11-27T14:24:55.921Z,20.60
2022-11-27T14:27:28.402Z,15.00
2022-11-27T14:30:00.191Z,12.80
2022-11-27T14:32:37.492Z,12.50
2022-11-27T14:35:22.084Z,12.90
2022-11-27T14:37:53.672Z,13.60
2022-11-27T14:43:08.325Z,12.00
2022-11-27T14:45:39.990Z,13.80
2022-11-27T14:50:46.533Z,15.10
2022-11-27T14:55:49.160Z,15.90
2022-11-27T14:58:24.130Z,14.00
2022-11-27T15:00:59.175Z,13.90
2022-11-27T15:03:30.866Z,13.20
2022-11-27T15:06:03.374Z,13.80
2022-11-27T15:08:35.750Z,12.10
2022-11-27T15:11:08.108Z,12.00
2022-11-27T15:13:39.963Z,10.00
2022-11-27T15:16:17.323Z,9.70
2022-11-27T15:18:51.570Z,10.70
2022-11-27T15:21:25.397Z,10.20
2022-11-27T15:23:58.137Z,10.70
2022-11-27T15:26:35.145Z,10.00
2022-11-27T15:29:06.979Z,10.40
2022-11-27T15:31:41.500Z,9.80
2022-11-27T15:34:24.577Z,10.50
2022-11-27T15:36:58.144Z,9.30
2022-11-27T15:39:32.749Z,10.50
2022-11-27T15:42:04.999Z,10.30
2022-11-27T15:44:36.491Z,10.30
2022-11-27T15:47:07.986Z,9.20
2022-11-27T15:49:39.942Z,9.30
2022-11-27T15:52:11.536Z,8.90
2022-11-27T15:54:43.332Z,9.30
2022-11-27T15:57:15.225Z,9.30
2022-11-27T16:02:18.281Z,11.40
2022-11-27T16:04:50.464Z,11.60
2022-11-27T16:07:22.262Z,10.60
2022-11-27T16:09:53.884Z,11.70
2022-11-27T16:12:25.485Z,13.00
2022-11-27T16:17:26.714Z,13.20
2022-11-27T16:19:58.241Z,11.90
2022-11-27T16:22:30.028Z,13.00
2022-11-27T16:25:01.698Z,12.60
2022-11-27T16:27:34.250Z,12.10
2022-11-27T16:30:12.728Z,12.10
2022-11-27T16:32:45.103Z,15.20
2022-11-27T16:35:18.388Z,12.20
2022-11-27T16:37:50.030Z,10.90
2022-11-27T16:40:23.959Z,9.50
2022-11-27T16:45:26.340Z,8.90
2022-11-27T16:47:58.974Z,8.70
2022-11-27T16:50:32.825Z,8.00
2022-11-27T16:53:04.815Z,9.60
2022-11-27T16:55:37.861Z,9.60
2022-11-27T16:58:10.010Z,9.90
2022-11-27T17:00:41.904Z,9.80
2022-11-27T17:05:51.221Z,8.00
2022-11-27T17:08:23.087Z,8.00
2022-11-27T17:10:54.479Z,9.00
2022-11-27T17:13:26.057Z,9.40
2022-11-27T17:15:57.988Z,9.70
2022-11-27T17:18:29.877Z,9.50
2022-11-27T17:21:05.196Z,10.80
2022-11-27T17:23:37.493Z,10.90
2022-11-27T17:26:12.479Z,10.10
2022-11-27T17:28:45.286Z,11.20
2022-11-27T17:31:19.112Z,10.40
2022-11-27T17:33:52.885Z,11.60
2022-11-27T17:36:25.148Z,9.80
2022-11-27T17:38:57.452Z,11.20
2022-11-27T17:41:28.998Z,10.90
2022-11-27T17:44:00.616Z,11.10
2022-11-27T17:46:32.690Z,11.20
2022-11-27T17:49:05.428Z,12.00
2022-11-27T17:51:38.345Z,13.60
2022-11-27T17:54:10.965Z,13.00
2022-11-27T17:56:43.425Z,12.90
2022-11-27T17:59:15.344Z,12.80
2022-11-27T18:01:48.899Z,14.60
2022-11-27T18:04:20.669Z,16.40
2022-11-27T18:06:52.282Z,14.80
2022-11-27T18:09:26.576Z,14.20
2022-11-27T18:11:58.354Z,15.30
2022-11-27T18:17:05.226Z,17.30
2022-11-27T18:19:37.029Z,16.00
2022-11-27T18:22:09.752Z,18.20
2022-11-27T18:24:42.409Z,18.50
2022-11-27T18:27:15.579Z,17.60
2022-11-27T18:29:47.622Z,16.70
2022-11-27T18:32:20.326Z,19.40
2022-11-27T18:34:52.845Z,14.60
2022-11-27T18:37:24.372Z,14.10
2022-11-27T18:39:56.757Z,13.40
2022-11-27T18:42:30.562Z,15.50
2022-11-27T18:45:02.426Z,16.90
2022-11-27T18:47:34.024Z,16.30
2022-11-27T18:50:06.534Z,15.50
2022-11-27T18:52:39.929Z,16.50
2022-11-27T18:55:12.099Z,16.10
2022-11-27T18:57:44.168Z,16.50
2022-11-27T19:00:18.384Z,16.40
2022-11-27T19:02:50.332Z,15.30
2022-11-27T19:05:21.879Z,14.00
2022-11-27T19:07:53.373Z,15.80
2022-11-27T19:10:25.153Z,15.30
2022-11-27T19:12:56.782Z,16.40
2022-11-27T19:15:29.221Z,14.40
2022-11-27T19:20:30.953Z,16.50
2022-11-27T19:23:03.379Z,18.40
2022-11-27T19:25:39.013Z,20.40
2022-11-27T19:28:10.704Z,20.40
2022-11-27T19:30:43.582Z,21.90
2022-11-27T19:33:14.997Z,19.80
2022-11-27T19:35:46.960Z,19.20
2022-11-27T19:38:18.411Z,19.10
2022-11-27T19:40:51.582Z,22.60
2022-11-27T19:43:23.159Z,21.80
2022-11-27T19:45:54.632Z,20.60
2022-11-27T19:48:26.094Z,19.80
2022-11-27T19:51:03.607Z,21.70
2022-11-27T19:53:35.369Z,20.60
2022-11-27T19:58:37.293Z,21.40
2022-11-27T20:01:09.866Z,22.70
2022-11-27T20:03:41.814Z,25.20
2022-11-27T20:08:44.227Z,22.50
2022-11-27T20:11:18.565Z,23.50
2022-11-27T20:13:50.822Z,24.20
2022-11-27T20:16:22.705Z,23.90
2022-11-27T20:18:54.584Z,25.70
2022-11-27T20:21:28.225Z,24.10
2022-11-27T20:26:30.914Z,22.60
2022-11-27T20:29:03.549Z,22.00
2022-11-27T20:31:39.658Z,25.70
2022-11-27T20:34:12.045Z,25.30
2022-11-27T20:36:43.761Z,25.90
2022-11-27T20:39:20.851Z,23.50
2022-11-27T20:41:53.748Z,25.00
2022-11-27T20:44:25.573Z,21.80
2022-11-27T20:46:57.607Z,23.60
2022-11-27T20:49:29.244Z,24.40
2022-11-27T20:52:03.607Z,24.40
2022-11-27T20:54:35.392Z,24.20
2022-11-27T20:57:08.493Z,25.30
2022-11-27T20:59:40.516Z,25.50
2022-11-27T21:02:14.255Z,27.30
2022-11-27T21:04:47.291Z,28.60
2022-11-27T21:07:19.660Z,29.90
2022-11-27T21:09:51.589Z,28.10
2022-11-27T21:12:23.073Z,26.80
2022-11-27T21:14:54.580Z,25.90
2022-11-27T21:17:26.312Z,26.50
2022-11-27T21:19:57.905Z,26.30
2022-11-27T21:22:29.992Z,26.90
2022-11-27T21:25:01.824Z,25.90
2022-11-27T21:30:03.255Z,24.30
2022-11-27T21:32:35.171Z,25.00
2022-11-27T21:35:08.647Z,26.80
2022-11-27T21:37:40.500Z,25.80
2022-11-27T21:42:44.666Z,26.50
2022-11-27T21:45:17.067Z,25.20
2022-11-27T21:47:48.861Z,26.00
2022-11-27T21:50:20.458Z,25.80
2022-11-27T21:52:51.987Z,28.10
2022-11-27T21:55:24.341Z,27.50
2022-11-27T21:57:55.896Z,27.50
2022-11-27T22:00:27.589Z,25.70
2022-11-27T22:05:29.159Z,28.20
2022-11-27T22:08:00.763Z,28.60
2022-11-27T22:13:02.391Z,26.90
2022-11-27T22:18:04.009Z,28.00
2022-11-27T22:23:05.497Z,28.30
2022-11-27T22:25:37.435Z,27.50
2022-11-27T22:28:09.224Z,27.40
2022-11-27T22:33:10.842Z,26.70
2022-11-27T22:35:42.922Z,23.90
2022-11-27T22:38:14.852Z,24.00
2022-11-27T22:40:46.550Z,23.90
2022-11-27T22:43:18.403Z,27.20
2022-11-27T22:45:50.226Z,23.50
2022-11-27T22:48:22.421Z,23.30
2022-11-27T22:50:59.837Z,21.20
2022-11-27T22:53:31.741Z,22.00
2022-11-27T22:58:41.361Z,23.20
2022-11-27T23:01:18.905Z,25.40
2022-11-27T23:03:50.990Z,24.40
2022-11-27T23:06:23.760Z,24.10
2022-11-27T23:08:56.764Z,25.70
2022-11-27T23:13:59.025Z,23.20
2022-11-27T23:16:30.880Z,24.00
2022-11-27T23:19:02.588Z,22.60
2022-11-27T23:21:37.765Z,21.90
2022-11-27T23:24:11.629Z,24.00
2022-11-27T23:26:43.374Z,23.40
2022-11-27T23:29:15.263Z,21.60
2022-11-27T23:31:46.899Z,22.10
2022-11-27T23:36:48.460Z,23.40
2022-11-27T23:39:20.068Z,19.30
2022-11-27T23:41:51.703Z,20.70
2022-11-27T23:44:23.569Z,23.40
2022-11-27T23:46:55.076Z,23.00
2022-11-27T23:49:26.780Z,21.90
2022-11-27T23:52:00.485Z,22.40
2022-11-27T23:54:32.456Z,20.10
2022-11-27T23:57:05.148Z,22.50
2022-11-27T23:59:36.769Z,21.80
